sensor_id;sensor_type;location;lat;lon;timestamp;P1;durP1;ratioP1;P2;durP2;ratioP2
39874;SDS011;25547;52.530;13.194;2023-02-28T00:00:28;3.50;;;0.82;;
39874;SDS011;25547;52.530;13.194;2023-02-28T00:02:56;5.97;;;1.10;;
39874;SDS011;25547;52.530;13.194;2023-02-28T00:05:23;3.38;;;0.60;;
39874;SDS011;25547;52.530;13.194;2023-02-28T00:07:50;6.35;;;1.90;;
39874;SDS011;25547;52.530;13.194;2023-02-28T00:10:17;4.13;;;0.47;;
39874;SDS011;25547;52.530;13.194;2023-02-28T00:12:46;5.45;;;1.00;;
39874;SDS011;25547;52.530;13.194;2023-02-28T00:15:15;9.25;;;1.75;;
39874;SDS011;25547;52.530;13.194;2023-02-28T00:17:41;2.88;;;0.65;;
39874;SDS011;25547;52.530;13.194;2023-02-28T00:20:07;4.13;;;1.08;;
39874;SDS011;25547;52.530;13.194;2023-02-28T00:22:37;3.72;;;0.77;;
39874;SDS011;25547;52.530;13.194;2023-02-28T00:25:05;5.50;;;0.65;;
39874;SDS011;25547;52.530;13.194;2023-02-28T00:27:37;2.60;;;0.55;;
39874;SDS011;25547;52.530;13.194;2023-02-28T00:30:04;5.38;;;1.50;;
39874;SDS011;25547;52.530;13.194;2023-02-28T00:32:36;1.83;;;0.50;;
39874;SDS011;25547;52.530;13.194;2023-02-28T00:35:02;5.25;;;1.00;;
39874;SDS011;25547;52.530;13.194;2023-02-28T00:37:28;4.00;;;0.82;;
39874;SDS011;25547;52.530;13.194;2023-02-28T00:39:54;2.97;;;1.00;;
39874;SDS011;25547;52.530;13.194;2023-02-28T00:42:19;2.53;;;0.40;;
39874;SDS011;25547;52.530;13.194;2023-02-28T00:44:45;5.50;;;1.00;;
39874;SDS011;25547;52.530;13.194;2023-02-28T00:47:11;3.05;;;0.63;;
39874;SDS011;25547;52.530;13.194;2023-02-28T00:49:36;4.85;;;0.95;;
39874;SDS011;25547;52.530;13.194;2023-02-28T00:52:04;4.20;;;0.73;;
39874;SDS011;25547;52.530;13.194;2023-02-28T00:54:30;2.53;;;0.68;;
39874;SDS011;25547;52.530;13.194;2023-02-28T00:56:55;5.70;;;1.20;;
39874;SDS011;25547;52.530;13.194;2023-02-28T00:59:23;4.82;;;0.70;;
39874;SDS011;25547;52.530;13.194;2023-02-28T01:01:51;5.97;;;0.82;;
39874;SDS011;25547;52.530;13.194;2023-02-28T01:04:17;2.97;;;0.70;;
39874;SDS011;25547;52.530;13.194;2023-02-28T01:06:42;4.57;;;0.85;;
39874;SDS011;25547;52.530;13.194;2023-02-28T01:09:08;2.95;;;0.60;;
39874;SDS011;25547;52.530;13.194;2023-02-28T01:11:37;5.25;;;1.60;;
39874;SDS011;25547;52.530;13.194;2023-02-28T01:14:04;4.90;;;1.02;;
39874;SDS011;25547;52.530;13.194;2023-02-28T01:16:30;4.10;;;0.70;;
39874;SDS011;25547;52.530;13.194;2023-02-28T01:18:56;5.20;;;0.93;;
39874;SDS011;25547;52.530;13.194;2023-02-28T01:21:25;3.28;;;0.77;;
39874;SDS011;25547;52.530;13.194;2023-02-28T01:23:55;4.70;;;0.63;;
39874;SDS011;25547;52.530;13.194;2023-02-28T01:26:24;2.88;;;0.40;;
39874;SDS011;25547;52.530;13.194;2023-02-28T01:28:51;3.67;;;0.82;;
39874;SDS011;25547;52.530;13.194;2023-02-28T01:31:17;4.07;;;0.40;;
39874;SDS011;25547;52.530;13.194;2023-02-28T01:33:44;5.40;;;0.50;;
39874;SDS011;25547;52.530;13.194;2023-02-28T01:36:15;2.90;;;0.77;;
39874;SDS011;25547;52.530;13.194;2023-02-28T01:38:47;4.03;;;0.32;;
39874;SDS011;25547;52.530;13.194;2023-02-28T01:41:16;3.05;;;0.43;;
39874;SDS011;25547;52.530;13.194;2023-02-28T01:43:54;5.07;;;0.70;;
39874;SDS011;25547;52.530;13.194;2023-02-28T01:46:28;5.22;;;0.68;;
39874;SDS011;25547;52.530;13.194;2023-02-28T01:54:20;3.17;;;0.50;;
39874;SDS011;25547;52.530;13.194;2023-02-28T01:56:56;5.60;;;0.77;;
39874;SDS011;25547;52.530;13.194;2023-02-28T02:00:11;2.88;;;0.40;;
39874;SDS011;25547;52.530;13.194;2023-02-28T02:02:23;4.70;;;1.02;;
39874;SDS011;25547;52.530;13.194;2023-02-28T02:04:54;4.07;;;0.50;;
39874;SDS011;25547;52.530;13.194;2023-02-28T02:07:26;4.38;;;0.60;;
39874;SDS011;25547;52.530;13.194;2023-02-28T02:10:00;8.30;;;0.73;;
39874;SDS011;25547;52.530;13.194;2023-02-28T02:17:55;3.60;;;0.75;;
39874;SDS011;25547;52.530;13.194;2023-02-28T02:29:51;3.50;;;0.70;;
39874;SDS011;25547;52.530;13.194;2023-02-28T02:35:15;4.05;;;0.70;;
39874;SDS011;25547;52.530;13.194;2023-02-28T02:40:57;4.65;;;0.63;;
39874;SDS011;25547;52.530;13.194;2023-02-28T02:43:40;3.00;;;0.60;;
39874;SDS011;25547;52.530;13.194;2023-02-28T02:46:36;5.72;;;0.88;;
39874;SDS011;25547;52.530;13.194;2023-02-28T02:49:09;3.45;;;0.70;;
39874;SDS011;25547;52.530;13.194;2023-02-28T02:51:43;5.50;;;0.90;;
39874;SDS011;25547;52.530;13.194;2023-02-28T02:54:13;6.07;;;0.85;;
39874;SDS011;25547;52.530;13.194;2023-02-28T02:56:43;3.80;;;0.50;;
39874;SDS011;25547;52.530;13.194;2023-02-28T02:59:15;2.80;;;0.77;;
39874;SDS011;25547;52.530;13.194;2023-02-28T03:01:48;4.55;;;0.40;;
39874;SDS011;25547;52.530;13.194;2023-02-28T03:04:19;4.00;;;0.77;;
39874;SDS011;25547;52.530;13.194;2023-02-28T03:06:51;5.47;;;0.85;;
39874;SDS011;25547;52.530;13.194;2023-02-28T03:09:23;5.82;;;0.98;;
39874;SDS011;25547;52.530;13.194;2023-02-28T03:11:51;3.97;;;0.50;;
39874;SDS011;25547;52.530;13.194;2023-02-28T03:26:07;3.28;;;0.63;;
39874;SDS011;25547;52.530;13.194;2023-02-28T03:31:38;5.53;;;0.77;;
39874;SDS011;25547;52.530;13.194;2023-02-28T03:34:36;2.80;;;0.75;;
39874;SDS011;25547;52.530;13.194;2023-02-28T03:37:11;5.03;;;0.93;;
39874;SDS011;25547;52.530;13.194;2023-02-28T03:39:49;7.53;;;1.35;;
39874;SDS011;25547;52.530;13.194;2023-02-28T03:42:22;4.63;;;1.25;;
39874;SDS011;25547;52.530;13.194;2023-02-28T03:52:27;4.85;;;0.63;;
39874;SDS011;25547;52.530;13.194;2023-02-28T03:54:59;4.68;;;0.88;;
39874;SDS011;25547;52.530;13.194;2023-02-28T03:57:34;5.03;;;1.17;;
39874;SDS011;25547;52.530;13.194;2023-02-28T04:00:13;6.22;;;1.05;;
39874;SDS011;25547;52.530;13.194;2023-02-28T04:02:46;8.18;;;1.00;;
39874;SDS011;25547;52.530;13.194;2023-02-28T04:05:17;3.13;;;0.60;;
39874;SDS011;25547;52.530;13.194;2023-02-28T04:07:46;5.22;;;1.10;;
39874;SDS011;25547;52.530;13.194;2023-02-28T04:10:16;9.90;;;1.88;;
39874;SDS011;25547;52.530;13.194;2023-02-28T04:12:45;7.22;;;1.55;;
39874;SDS011;25547;52.530;13.194;2023-02-28T04:15:11;5.63;;;1.02;;
39874;SDS011;25547;52.530;13.194;2023-02-28T04:17:36;8.57;;;1.35;;
39874;SDS011;25547;52.530;13.194;2023-02-28T04:20:02;8.57;;;2.00;;
39874;SDS011;25547;52.530;13.194;2023-02-28T04:22:34;4.53;;;0.93;;
39874;SDS011;25547;52.530;13.194;2023-02-28T04:24:59;6.05;;;1.00;;
39874;SDS011;25547;52.530;13.194;2023-02-28T04:27:27;5.13;;;2.03;;
39874;SDS011;25547;52.530;13.194;2023-02-28T04:29:53;7.03;;;1.00;;
39874;SDS011;25547;52.530;13.194;2023-02-28T04:32:18;4.93;;;0.93;;
39874;SDS011;25547;52.530;13.194;2023-02-28T04:34:44;4.45;;;1.05;;
39874;SDS011;25547;52.530;13.194;2023-02-28T04:37:12;4.15;;;1.00;;
39874;SDS011;25547;52.530;13.194;2023-02-28T04:39:40;4.38;;;1.25;;
39874;SDS011;25547;52.530;13.194;2023-02-28T04:42:07;7.38;;;1.77;;
39874;SDS011;25547;52.530;13.194;2023-02-28T04:44:35;6.78;;;1.55;;
39874;SDS011;25547;52.530;13.194;2023-02-28T04:47:01;6.53;;;1.50;;
39874;SDS011;25547;52.530;13.194;2023-02-28T04:49:26;6.25;;;1.55;;
39874;SDS011;25547;52.530;13.194;2023-02-28T04:51:52;5.28;;;1.67;;
39874;SDS011;25547;52.530;13.194;2023-02-28T04:54:20;7.85;;;2.28;;
39874;SDS011;25547;52.530;13.194;2023-02-28T04:56:46;5.72;;;1.63;;
39874;SDS011;25547;52.530;13.194;2023-02-28T04:59:14;9.25;;;2.13;;
39874;SDS011;25547;52.530;13.194;2023-02-28T05:01:44;5.10;;;1.42;;
39874;SDS011;25547;52.530;13.194;2023-02-28T05:04:12;8.73;;;2.00;;
39874;SDS011;25547;52.530;13.194;2023-02-28T05:06:37;7.50;;;1.35;;
39874;SDS011;25547;52.530;13.194;2023-02-28T05:09:06;7.80;;;2.45;;
39874;SDS011;25547;52.530;13.194;2023-02-28T05:11:32;8.43;;;1.77;;
39874;SDS011;25547;52.530;13.194;2023-02-28T05:14:04;5.05;;;1.30;;
39874;SDS011;25547;52.530;13.194;2023-02-28T05:16:34;6.45;;;1.73;;
39874;SDS011;25547;52.530;13.194;2023-02-28T05:18:59;4.53;;;1.70;;
39874;SDS011;25547;52.530;13.194;2023-02-28T05:23:59;12.50;;;4.60;;
39874;SDS011;25547;52.530;13.194;2023-02-28T05:28:55;8.88;;;1.40;;
39874;SDS011;25547;52.530;13.194;2023-02-28T05:31:23;8.32;;;1.85;;
39874;SDS011;25547;52.530;13.194;2023-02-28T05:33:51;5.95;;;1.48;;
39874;SDS011;25547;52.530;13.194;2023-02-28T05:36:16;5.10;;;1.63;;
39874;SDS011;25547;52.530;13.194;2023-02-28T05:38:42;5.78;;;1.92;;
39874;SDS011;25547;52.530;13.194;2023-02-28T05:41:11;7.10;;;2.05;;
39874;SDS011;25547;52.530;13.194;2023-02-28T05:43:37;6.13;;;2.05;;
39874;SDS011;25547;52.530;13.194;2023-02-28T05:46:04;7.45;;;1.60;;
39874;SDS011;25547;52.530;13.194;2023-02-28T05:48:30;6.25;;;3.20;;
39874;SDS011;25547;52.530;13.194;2023-02-28T05:50:59;6.68;;;1.80;;
39874;SDS011;25547;52.530;13.194;2023-02-28T05:53:25;11.57;;;3.60;;
39874;SDS011;25547;52.530;13.194;2023-02-28T05:55:51;9.60;;;1.77;;
39874;SDS011;25547;52.530;13.194;2023-02-28T05:58:16;10.40;;;3.00;;
39874;SDS011;25547;52.530;13.194;2023-02-28T06:00:42;6.20;;;2.25;;
39874;SDS011;25547;52.530;13.194;2023-02-28T06:03:10;5.30;;;2.03;;
39874;SDS011;25547;52.530;13.194;2023-02-28T06:05:38;5.78;;;1.73;;
39874;SDS011;25547;52.530;13.194;2023-02-28T06:08:04;8.07;;;2.22;;
39874;SDS011;25547;52.530;13.194;2023-02-28T06:10:32;6.15;;;2.33;;
39874;SDS011;25547;52.530;13.194;2023-02-28T06:13:01;7.72;;;1.98;;
39874;SDS011;25547;52.530;13.194;2023-02-28T06:17:59;8.77;;;1.70;;
39874;SDS011;25547;52.530;13.194;2023-02-28T06:20:26;8.57;;;1.98;;
39874;SDS011;25547;52.530;13.194;2023-02-28T06:22:57;7.25;;;2.65;;
39874;SDS011;25547;52.530;13.194;2023-02-28T06:25:23;9.55;;;2.63;;
39874;SDS011;25547;52.530;13.194;2023-02-28T06:27:50;9.50;;;2.58;;
39874;SDS011;25547;52.530;13.194;2023-02-28T06:30:16;5.95;;;2.20;;
39874;SDS011;25547;52.530;13.194;2023-02-28T06:32:42;6.70;;;2.35;;
39874;SDS011;25547;52.530;13.194;2023-02-28T06:35:08;12.45;;;3.28;;
39874;SDS011;25547;52.530;13.194;2023-02-28T06:37:34;8.50;;;3.05;;
39874;SDS011;25547;52.530;13.194;2023-02-28T06:40:00;17.63;;;4.22;;
39874;SDS011;25547;52.530;13.194;2023-02-28T06:42:25;4.93;;;2.22;;
39874;SDS011;25547;52.530;13.194;2023-02-28T06:44:53;7.60;;;2.45;;
39874;SDS011;25547;52.530;13.194;2023-02-28T06:47:22;11.98;;;2.72;;
39874;SDS011;25547;52.530;13.194;2023-02-28T06:49:49;6.93;;;2.00;;
39874;SDS011;25547;52.530;13.194;2023-02-28T06:52:15;11.52;;;3.28;;
39874;SDS011;25547;52.530;13.194;2023-02-28T06:54:41;6.40;;;2.25;;
39874;SDS011;25547;52.530;13.194;2023-02-28T06:57:07;10.80;;;3.67;;
39874;SDS011;25547;52.530;13.194;2023-02-28T06:59:35;10.30;;;5.03;;
39874;SDS011;25547;52.530;13.194;2023-02-28T07:02:08;11.15;;;3.30;;
39874;SDS011;25547;52.530;13.194;2023-02-28T07:04:33;7.72;;;3.33;;
39874;SDS011;25547;52.530;13.194;2023-02-28T07:07:01;10.82;;;3.38;;
39874;SDS011;25547;52.530;13.194;2023-02-28T07:09:27;7.75;;;3.53;;
39874;SDS011;25547;52.530;13.194;2023-02-28T07:11:54;10.65;;;5.03;;
39874;SDS011;25547;52.530;13.194;2023-02-28T07:14:22;11.32;;;3.75;;
39874;SDS011;25547;52.530;13.194;2023-02-28T07:16:48;12.10;;;4.35;;
39874;SDS011;25547;52.530;13.194;2023-02-28T07:19:15;10.20;;;3.50;;
39874;SDS011;25547;52.530;13.194;2023-02-28T07:21:43;11.07;;;4.40;;
39874;SDS011;25547;52.530;13.194;2023-02-28T07:24:08;9.45;;;4.22;;
39874;SDS011;25547;52.530;13.194;2023-02-28T07:26:34;10.95;;;4.43;;
39874;SDS011;25547;52.530;13.194;2023-02-28T07:29:00;10.00;;;4.25;;
39874;SDS011;25547;52.530;13.194;2023-02-28T07:31:25;11.10;;;4.55;;
39874;SDS011;25547;52.530;13.194;2023-02-28T07:33:51;12.35;;;4.05;;
39874;SDS011;25547;52.530;13.194;2023-02-28T07:36:18;10.75;;;4.25;;
39874;SDS011;25547;52.530;13.194;2023-02-28T07:38:44;11.93;;;3.83;;
39874;SDS011;25547;52.530;13.194;2023-02-28T07:41:13;8.65;;;4.28;;
39874;SDS011;25547;52.530;13.194;2023-02-28T07:43:40;9.35;;;4.72;;
39874;SDS011;25547;52.530;13.194;2023-02-28T07:46:07;13.75;;;4.30;;
39874;SDS011;25547;52.530;13.194;2023-02-28T07:48:35;11.88;;;4.47;;
39874;SDS011;25547;52.530;13.194;2023-02-28T07:51:01;12.20;;;5.10;;
39874;SDS011;25547;52.530;13.194;2023-02-28T07:53:30;11.20;;;3.58;;
39874;SDS011;25547;52.530;13.194;2023-02-28T07:55:56;9.23;;;4.28;;
39874;SDS011;25547;52.530;13.194;2023-02-28T07:58:22;10.57;;;4.18;;
39874;SDS011;25547;52.530;13.194;2023-02-28T08:00:49;11.35;;;4.30;;
39874;SDS011;25547;52.530;13.194;2023-02-28T08:03:14;11.70;;;4.78;;
39874;SDS011;25547;52.530;13.194;2023-02-28T08:05:49;12.57;;;4.20;;
39874;SDS011;25547;52.530;13.194;2023-02-28T08:08:15;10.98;;;3.85;;
39874;SDS011;25547;52.530;13.194;2023-02-28T08:10:41;13.80;;;3.75;;
39874;SDS011;25547;52.530;13.194;2023-02-28T08:13:10;8.50;;;3.92;;
39874;SDS011;25547;52.530;13.194;2023-02-28T08:15:39;8.80;;;3.35;;
39874;SDS011;25547;52.530;13.194;2023-02-28T08:18:08;10.07;;;3.17;;
39874;SDS011;25547;52.530;13.194;2023-02-28T08:20:36;10.65;;;3.50;;
39874;SDS011;25547;52.530;13.194;2023-02-28T08:23:04;9.70;;;3.67;;
39874;SDS011;25547;52.530;13.194;2023-02-28T08:25:29;8.65;;;3.35;;
39874;SDS011;25547;52.530;13.194;2023-02-28T08:27:57;8.77;;;3.17;;
39874;SDS011;25547;52.530;13.194;2023-02-28T08:30:25;5.40;;;1.73;;
39874;SDS011;25547;52.530;13.194;2023-02-28T08:32:51;3.17;;;1.13;;
39874;SDS011;25547;52.530;13.194;2023-02-28T08:35:16;3.78;;;0.95;;
39874;SDS011;25547;52.530;13.194;2023-02-28T08:37:42;2.05;;;0.50;;
39874;SDS011;25547;52.530;13.194;2023-02-28T08:40:08;3.75;;;1.35;;
39874;SDS011;25547;52.530;13.194;2023-02-28T08:42:34;3.38;;;0.90;;
39874;SDS011;25547;52.530;13.194;2023-02-28T08:45:00;5.90;;;0.80;;
39874;SDS011;25547;52.530;13.194;2023-02-28T08:47:28;3.15;;;0.75;;
39874;SDS011;25547;52.530;13.194;2023-02-28T08:49:56;8.75;;;1.00;;
39874;SDS011;25547;52.530;13.194;2023-02-28T08:52:24;3.33;;;0.90;;
39874;SDS011;25547;52.530;13.194;2023-02-28T08:54:52;2.88;;;0.73;;
39874;SDS011;25547;52.530;13.194;2023-02-28T08:57:19;3.42;;;0.40;;
39874;SDS011;25547;52.530;13.194;2023-02-28T08:59:50;3.92;;;0.65;;
39874;SDS011;25547;52.530;13.194;2023-02-28T09:02:16;2.13;;;0.50;;
39874;SDS011;25547;52.530;13.194;2023-02-28T09:04:42;4.03;;;0.90;;
39874;SDS011;25547;52.530;13.194;2023-02-28T09:07:10;3.67;;;0.70;;
39874;SDS011;25547;52.530;13.194;2023-02-28T09:09:38;3.72;;;0.50;;
39874;SDS011;25547;52.530;13.194;2023-02-28T09:12:18;2.35;;;0.30;;
39874;SDS011;25547;52.530;13.194;2023-02-28T09:14:47;5.10;;;0.30;;
39874;SDS011;25547;52.530;13.194;2023-02-28T09:17:13;4.05;;;0.20;;
39874;SDS011;25547;52.530;13.194;2023-02-28T09:19:39;7.18;;;0.30;;
39874;SDS011;25547;52.530;13.194;2023-02-28T09:22:04;2.33;;;0.40;;
39874;SDS011;25547;52.530;13.194;2023-02-28T09:24:34;2.72;;;0.20;;
39874;SDS011;25547;52.530;13.194;2023-02-28T09:27:01;2.53;;;0.20;;
39874;SDS011;25547;52.530;13.194;2023-02-28T09:29:26;7.65;;;0.20;;
39874;SDS011;25547;52.530;13.194;2023-02-28T09:31:52;1.95;;;0.10;;
39874;SDS011;25547;52.530;13.194;2023-02-28T09:34:17;6.53;;;0.10;;
39874;SDS011;25547;52.530;13.194;2023-02-28T09:36:43;2.67;;;0.40;;
39874;SDS011;25547;52.530;13.194;2023-02-28T09:39:09;1.98;;;0.17;;
39874;SDS011;25547;52.530;13.194;2023-02-28T09:41:39;5.82;;;0.30;;
39874;SDS011;25547;52.530;13.194;2023-02-28T09:44:16;1.73;;;0.10;;
39874;SDS011;25547;52.530;13.194;2023-02-28T09:49:58;5.15;;;0.50;;
39874;SDS011;25547;52.530;13.194;2023-02-28T09:52:51;1.40;;;0.20;;
39874;SDS011;25547;52.530;13.194;2023-02-28T09:55:25;2.15;;;0.10;;
39874;SDS011;25547;52.530;13.194;2023-02-28T09:58:10;2.78;;;0.20;;
39874;SDS011;25547;52.530;13.194;2023-02-28T10:01:02;2.35;;;0.10;;
39874;SDS011;25547;52.530;13.194;2023-02-28T10:03:42;3.25;;;0.20;;
39874;SDS011;25547;52.530;13.194;2023-02-28T10:06:21;5.30;;;0.20;;
39874;SDS011;25547;52.530;13.194;2023-02-28T10:11:32;4.63;;;0.20;;
39874;SDS011;25547;52.530;13.194;2023-02-28T10:14:12;3.67;;;0.60;;
39874;SDS011;25547;52.530;13.194;2023-02-28T10:22:00;2.65;;;0.45;;
39874;SDS011;25547;52.530;13.194;2023-02-28T10:24:44;1.67;;;0.20;;
39874;SDS011;25547;52.530;13.194;2023-02-28T10:29:51;2.95;;;0.35;;
39874;SDS011;25547;52.530;13.194;2023-02-28T10:32:21;4.35;;;0.35;;
39874;SDS011;25547;52.530;13.194;2023-02-28T10:37:44;3.58;;;0.50;;
39874;SDS011;25547;52.530;13.194;2023-02-28T10:42:42;1.00;;;0.10;;
39874;SDS011;25547;52.530;13.194;2023-02-28T10:45:25;1.95;;;0.15;;
39874;SDS011;25547;52.530;13.194;2023-02-28T10:55:57;2.55;;;0.20;;
39874;SDS011;25547;52.530;13.194;2023-02-28T11:01:10;3.40;;;0.43;;
39874;SDS011;25547;52.530;13.194;2023-02-28T11:03:46;3.58;;;0.25;;
39874;SDS011;25547;52.530;13.194;2023-02-28T11:06:16;1.70;;;0.30;;
39874;SDS011;25547;52.530;13.194;2023-02-28T11:08:48;1.95;;;0.20;;
39874;SDS011;25547;52.530;13.194;2023-02-28T11:11:18;1.27;;;0.20;;
39874;SDS011;25547;52.530;13.194;2023-02-28T11:13:45;4.32;;;0.10;;
39874;SDS011;25547;52.530;13.194;2023-02-28T11:16:15;2.53;;;0.20;;
39874;SDS011;25547;52.530;13.194;2023-02-28T11:21:15;2.08;;;0.22;;
39874;SDS011;25547;52.530;13.194;2023-02-28T11:23:44;2.22;;;0.20;;
39874;SDS011;25547;52.530;13.194;2023-02-28T11:26:10;10.77;;;0.50;;
39874;SDS011;25547;52.530;13.194;2023-02-28T11:28:39;3.65;;;0.40;;
39874;SDS011;25547;52.530;13.194;2023-02-28T11:33:54;3.92;;;0.15;;
39874;SDS011;25547;52.530;13.194;2023-02-28T11:38:48;1.58;;;0.10;;
39874;SDS011;25547;52.530;13.194;2023-02-28T11:49:39;2.45;;;0.20;;
39874;SDS011;25547;52.530;13.194;2023-02-28T12:06:16;7.90;;;0.50;;
39874;SDS011;25547;52.530;13.194;2023-02-28T12:27:30;2.65;;;0.10;;
39874;SDS011;25547;52.530;13.194;2023-02-28T12:32:55;1.25;;;0.17;;
39874;SDS011;25547;52.530;13.194;2023-02-28T12:35:39;1.40;;;0.10;;
39874;SDS011;25547;52.530;13.194;2023-02-28T12:38:22;1.70;;;0.13;;
39874;SDS011;25547;52.530;13.194;2023-02-28T12:41:03;2.33;;;0.10;;
39874;SDS011;25547;52.530;13.194;2023-02-28T12:43:37;1.80;;;0.52;;
39874;SDS011;25547;52.530;13.194;2023-02-28T12:48:44;3.95;;;0.30;;
39874;SDS011;25547;52.530;13.194;2023-02-28T12:51:13;3.83;;;0.43;;
39874;SDS011;25547;52.530;13.194;2023-02-28T13:10:45;2.65;;;0.30;;
39874;SDS011;25547;52.530;13.194;2023-02-28T13:13:15;1.30;;;0.20;;
39874;SDS011;25547;52.530;13.194;2023-02-28T13:15:56;1.63;;;0.22;;
39874;SDS011;25547;52.530;13.194;2023-02-28T13:18:32;4.03;;;0.20;;
39874;SDS011;25547;52.530;13.194;2023-02-28T13:21:04;2.00;;;0.30;;
39874;SDS011;25547;52.530;13.194;2023-02-28T13:26:11;1.52;;;0.20;;
39874;SDS011;25547;52.530;13.194;2023-02-28T13:28:59;2.53;;;0.40;;
39874;SDS011;25547;52.530;13.194;2023-02-28T13:31:29;7.68;;;0.90;;
39874;SDS011;25547;52.530;13.194;2023-02-28T13:36:28;5.13;;;0.32;;
39874;SDS011;25547;52.530;13.194;2023-02-28T13:38:58;3.17;;;0.35;;
39874;SDS011;25547;52.530;13.194;2023-02-28T13:44:16;1.40;;;0.20;;
39874;SDS011;25547;52.530;13.194;2023-02-28T14:05:30;4.20;;;0.55;;
39874;SDS011;25547;52.530;13.194;2023-02-28T14:07:59;1.90;;;0.20;;
39874;SDS011;25547;52.530;13.194;2023-02-28T14:10:43;4.82;;;0.47;;
39874;SDS011;25547;52.530;13.194;2023-02-28T14:13:13;1.90;;;0.30;;
39874;SDS011;25547;52.530;13.194;2023-02-28T14:16:02;7.57;;;1.10;;
39874;SDS011;25547;52.530;13.194;2023-02-28T14:18:37;2.35;;;0.30;;
39874;SDS011;25547;52.530;13.194;2023-02-28T14:27:15;4.75;;;0.30;;
39874;SDS011;25547;52.530;13.194;2023-02-28T14:38:17;2.10;;;0.22;;
39874;SDS011;25547;52.530;13.194;2023-02-28T14:40:47;7.65;;;0.50;;
39874;SDS011;25547;52.530;13.194;2023-02-28T14:43:21;2.13;;;0.45;;
39874;SDS011;25547;52.530;13.194;2023-02-28T14:45:54;3.00;;;0.30;;
39874;SDS011;25547;52.530;13.194;2023-02-28T14:48:22;2.00;;;0.80;;
39874;SDS011;25547;52.530;13.194;2023-02-28T14:50:50;3.33;;;0.30;;
39874;SDS011;25547;52.530;13.194;2023-02-28T14:53:19;3.00;;;0.30;;
39874;SDS011;25547;52.530;13.194;2023-02-28T14:55:47;1.90;;;0.43;;
39874;SDS011;25547;52.530;13.194;2023-02-28T14:58:24;2.95;;;0.40;;
39874;SDS011;25547;52.530;13.194;2023-02-28T15:00:56;3.30;;;0.20;;
39874;SDS011;25547;52.530;13.194;2023-02-28T15:03:28;8.18;;;0.32;;
39874;SDS011;25547;52.530;13.194;2023-02-28T15:06:05;3.13;;;0.30;;
39874;SDS011;25547;52.530;13.194;2023-02-28T15:08:37;3.35;;;0.95;;
39874;SDS011;25547;52.530;13.194;2023-02-28T15:11:13;2.60;;;0.40;;
39874;SDS011;25547;52.530;13.194;2023-02-28T15:16:25;3.05;;;0.45;;
39874;SDS011;25547;52.530;13.194;2023-02-28T15:21:57;2.55;;;0.65;;
39874;SDS011;25547;52.530;13.194;2023-02-28T15:24:40;4.60;;;0.30;;
39874;SDS011;25547;52.530;13.194;2023-02-28T15:27:14;2.53;;;0.32;;
39874;SDS011;25547;52.530;13.194;2023-02-28T15:29:47;4.53;;;0.30;;
39874;SDS011;25547;52.530;13.194;2023-02-28T15:32:38;2.80;;;0.45;;
39874;SDS011;25547;52.530;13.194;2023-02-28T15:37:56;2.33;;;0.95;;
39874;SDS011;25547;52.530;13.194;2023-02-28T15:43:17;2.65;;;0.20;;
39874;SDS011;25547;52.530;13.194;2023-02-28T15:45:57;1.50;;;0.20;;
39874;SDS011;25547;52.530;13.194;2023-02-28T15:48:53;3.17;;;0.60;;
39874;SDS011;25547;52.530;13.194;2023-02-28T15:51:23;1.85;;;0.35;;
39874;SDS011;25547;52.530;13.194;2023-02-28T15:54:14;6.53;;;0.30;;
39874;SDS011;25547;52.530;13.194;2023-02-28T15:56:55;3.15;;;0.80;;
39874;SDS011;25547;52.530;13.194;2023-02-28T15:59:23;1.98;;;0.40;;
39874;SDS011;25547;52.530;13.194;2023-02-28T16:02:13;2.17;;;0.30;;
39874;SDS011;25547;52.530;13.194;2023-02-28T16:04:55;4.07;;;0.30;;
39874;SDS011;25547;52.530;13.194;2023-02-28T16:07:23;3.00;;;0.55;;
39874;SDS011;25547;52.530;13.194;2023-02-28T16:09:49;4.65;;;0.25;;
39874;SDS011;25547;52.530;13.194;2023-02-28T16:12:15;7.05;;;0.45;;
39874;SDS011;25547;52.530;13.194;2023-02-28T16:14:46;2.30;;;0.40;;
39874;SDS011;25547;52.530;13.194;2023-02-28T16:17:22;4.82;;;0.32;;
39874;SDS011;25547;52.530;13.194;2023-02-28T16:19:53;2.88;;;0.20;;
39874;SDS011;25547;52.530;13.194;2023-02-28T16:22:19;2.85;;;0.22;;
39874;SDS011;25547;52.530;13.194;2023-02-28T16:24:45;2.47;;;0.40;;
39874;SDS011;25547;52.530;13.194;2023-02-28T16:27:18;4.47;;;1.30;;
39874;SDS011;25547;52.530;13.194;2023-02-28T16:29:56;3.85;;;0.40;;
39874;SDS011;25547;52.530;13.194;2023-02-28T16:32:22;3.03;;;0.35;;
39874;SDS011;25547;52.530;13.194;2023-02-28T16:34:49;4.10;;;0.30;;
39874;SDS011;25547;52.530;13.194;2023-02-28T16:37:16;2.05;;;0.30;;
39874;SDS011;25547;52.530;13.194;2023-02-28T16:39:43;2.55;;;0.40;;
39874;SDS011;25547;52.530;13.194;2023-02-28T16:42:15;3.58;;;0.22;;
39874;SDS011;25547;52.530;13.194;2023-02-28T16:44:49;10.73;;;1.50;;
39874;SDS011;25547;52.530;13.194;2023-02-28T16:47:15;3.25;;;0.30;;
39874;SDS011;25547;52.530;13.194;2023-02-28T16:49:40;5.60;;;0.73;;
39874;SDS011;25547;52.530;13.194;2023-02-28T16:52:07;2.85;;;1.23;;
39874;SDS011;25547;52.530;13.194;2023-02-28T16:54:34;2.65;;;0.50;;
39874;SDS011;25547;52.530;13.194;2023-02-28T16:57:01;3.75;;;1.15;;
39874;SDS011;25547;52.530;13.194;2023-02-28T16:59:27;4.50;;;0.50;;
39874;SDS011;25547;52.530;13.194;2023-02-28T17:01:54;4.85;;;0.47;;
39874;SDS011;25547;52.530;13.194;2023-02-28T17:04:22;8.70;;;0.70;;
39874;SDS011;25547;52.530;13.194;2023-02-28T17:06:51;6.60;;;0.50;;
39874;SDS011;25547;52.530;13.194;2023-02-28T17:09:19;5.93;;;0.75;;
39874;SDS011;25547;52.530;13.194;2023-02-28T17:11:46;3.92;;;0.50;;
39874;SDS011;25547;52.530;13.194;2023-02-28T17:14:15;6.25;;;0.63;;
39874;SDS011;25547;52.530;13.194;2023-02-28T17:16:41;3.47;;;0.32;;
39874;SDS011;25547;52.530;13.194;2023-02-28T17:19:11;3.40;;;0.40;;
39874;SDS011;25547;52.530;13.194;2023-02-28T17:21:41;2.33;;;0.38;;
39874;SDS011;25547;52.530;13.194;2023-02-28T17:24:10;4.80;;;0.47;;
39874;SDS011;25547;52.530;13.194;2023-02-28T17:26:39;3.08;;;0.40;;
39874;SDS011;25547;52.530;13.194;2023-02-28T17:29:16;4.93;;;0.65;;
39874;SDS011;25547;52.530;13.194;2023-02-28T17:31:43;4.18;;;0.47;;
39874;SDS011;25547;52.530;13.194;2023-02-28T17:34:09;3.60;;;1.20;;
39874;SDS011;25547;52.530;13.194;2023-02-28T17:36:43;3.90;;;0.68;;
39874;SDS011;25547;52.530;13.194;2023-02-28T17:39:10;7.18;;;0.50;;
39874;SDS011;25547;52.530;13.194;2023-02-28T17:41:38;2.42;;;0.40;;
39874;SDS011;25547;52.530;13.194;2023-02-28T17:44:07;4.93;;;0.88;;
39874;SDS011;25547;52.530;13.194;2023-02-28T17:46:38;8.60;;;0.50;;
39874;SDS011;25547;52.530;13.194;2023-02-28T17:49:04;5.30;;;0.93;;
39874;SDS011;25547;52.530;13.194;2023-02-28T17:51:32;6.07;;;1.75;;
39874;SDS011;25547;52.530;13.194;2023-02-28T17:54:00;6.28;;;1.05;;
39874;SDS011;25547;52.530;13.194;2023-02-28T17:56:26;8.50;;;1.05;;
39874;SDS011;25547;52.530;13.194;2023-02-28T17:58:55;5.57;;;1.33;;
39874;SDS011;25547;52.530;13.194;2023-02-28T18:01:21;6.38;;;1.95;;
39874;SDS011;25547;52.530;13.194;2023-02-28T18:03:51;4.47;;;0.70;;
39874;SDS011;25547;52.530;13.194;2023-02-28T18:06:19;5.30;;;1.00;;
39874;SDS011;25547;52.530;13.194;2023-02-28T18:08:50;4.55;;;0.88;;
39874;SDS011;25547;52.530;13.194;2023-02-28T18:11:22;6.43;;;0.75;;
39874;SDS011;25547;52.530;13.194;2023-02-28T18:13:49;3.28;;;0.70;;
39874;SDS011;25547;52.530;13.194;2023-02-28T18:16:17;6.15;;;1.77;;
39874;SDS011;25547;52.530;13.194;2023-02-28T18:18:44;5.78;;;1.45;;